createdAt,value
2023-12-11T00:02:25.783Z,3.70
2023-12-11T00:05:00.548Z,4.00
2023-12-11T00:07:35.068Z,4.00
2023-12-11T00:10:11.870Z,3.30
2023-12-11T00:12:46.739Z,2.40
2023-12-11T00:15:21.877Z,3.00
2023-12-11T00:17:56.588Z,2.70
2023-12-11T00:20:31.313Z,3.00
2023-12-11T00:23:07.969Z,2.80
2023-12-11T00:25:48.933Z,2.80
2023-12-11T00:28:23.628Z,3.60
2023-12-11T00:30:58.516Z,2.40
2023-12-11T00:33:33.638Z,2.10
2023-12-11T00:36:09.366Z,2.80
2023-12-11T00:38:44.056Z,2.80
2023-12-11T00:41:19.245Z,3.30
2023-12-11T00:43:53.746Z,3.10
2023-12-11T00:46:28.854Z,2.30
2023-12-11T00:49:03.585Z,2.80
2023-12-11T00:51:38.497Z,2.70
2023-12-11T00:54:13.652Z,2.70
2023-12-11T00:56:48.518Z,2.40
2023-12-11T00:59:23.259Z,2.70
2023-12-11T01:01:58.029Z,3.10
2023-12-11T01:04:32.812Z,3.10
2023-12-11T01:07:08.093Z,3.10
2023-12-11T01:09:43.705Z,3.70
2023-12-11T01:12:18.330Z,2.50
2023-12-11T01:14:53.038Z,2.60
2023-12-11T01:17:38.470Z,2.90
2023-12-11T01:20:16.937Z,2.90
2023-12-11T01:22:52.187Z,2.80
2023-12-11T01:25:27.116Z,3.30
2023-12-11T01:28:02.285Z,3.00
2023-12-11T01:30:37.354Z,2.90
2023-12-11T01:33:12.400Z,3.50
2023-12-11T01:35:47.455Z,3.80
2023-12-11T01:38:22.702Z,4.70
2023-12-11T01:40:57.845Z,5.30
2023-12-11T01:43:32.655Z,4.00
2023-12-11T01:46:13.596Z,3.10
2023-12-11T01:48:48.807Z,3.90
2023-12-11T01:51:26.260Z,3.30
2023-12-11T01:54:01.852Z,3.00
2023-12-11T01:56:36.724Z,2.90
2023-12-11T01:59:11.796Z,3.30
2023-12-11T02:01:47.660Z,2.60
2023-12-11T02:04:23.805Z,1.80
2023-12-11T02:06:58.805Z,2.40
2023-12-11T02:09:33.598Z,2.70
2023-12-11T02:12:09.556Z,3.10
2023-12-11T02:14:45.326Z,1.40
2023-12-11T02:17:20.147Z,2.90
2023-12-11T02:19:55.165Z,2.50
2023-12-11T02:22:30.773Z,3.00
2023-12-11T02:25:12.184Z,2.50
2023-12-11T02:27:46.910Z,1.90
2023-12-11T02:30:21.993Z,2.50
2023-12-11T02:32:58.483Z,2.20
2023-12-11T02:35:33.936Z,2.00
2023-12-11T02:38:08.630Z,2.50
2023-12-11T02:40:43.517Z,2.20
2023-12-11T02:43:18.384Z,1.50
2023-12-11T02:45:53.440Z,2.30
2023-12-11T02:48:28.597Z,2.00
2023-12-11T02:51:03.893Z,2.50
2023-12-11T02:53:38.834Z,2.60
2023-12-11T02:56:14.701Z,2.30
2023-12-11T02:58:49.834Z,2.00
2023-12-11T03:01:25.635Z,2.20
2023-12-11T03:04:00.634Z,2.40
2023-12-11T03:06:35.754Z,2.30
2023-12-11T03:09:10.866Z,2.20
2023-12-11T03:11:45.715Z,2.20
2023-12-11T03:14:20.447Z,2.10
2023-12-11T03:16:55.232Z,2.40
2023-12-11T03:19:30.908Z,2.10
2023-12-11T03:22:06.200Z,1.80
2023-12-11T03:24:41.213Z,2.10
2023-12-11T03:27:15.889Z,2.70
2023-12-11T03:29:50.740Z,2.60
2023-12-11T03:32:25.607Z,2.70
2023-12-11T03:35:01.950Z,2.70
2023-12-11T03:37:36.825Z,2.70
2023-12-11T03:40:15.148Z,2.60
2023-12-11T03:42:50.343Z,2.70
2023-12-11T03:45:25.785Z,2.80
2023-12-11T03:48:00.583Z,2.20
2023-12-11T03:50:35.643Z,2.90
2023-12-11T03:53:11.651Z,2.90
2023-12-11T03:55:46.405Z,3.30
2023-12-11T03:58:21.839Z,2.90
2023-12-11T04:00:56.896Z,2.80
2023-12-11T04:03:32.742Z,2.70
2023-12-11T04:06:09.264Z,2.30
2023-12-11T04:08:46.126Z,2.40
2023-12-11T04:11:21.170Z,2.10
2023-12-11T04:13:56.134Z,2.40
2023-12-11T04:16:30.874Z,2.60
2023-12-11T04:19:08.235Z,1.90
2023-12-11T04:21:43.211Z,1.90
2023-12-11T04:24:18.243Z,2.10
2023-12-11T04:26:52.841Z,2.00
2023-12-11T04:29:27.983Z,2.70
2023-12-11T04:32:03.100Z,2.10
2023-12-11T04:34:38.123Z,1.90
2023-12-11T04:37:13.142Z,4.40
2023-12-11T04:39:47.915Z,4.00
2023-12-11T04:42:22.783Z,3.40
2023-12-11T04:44:57.669Z,2.60
2023-12-11T04:47:32.709Z,3.20
2023-12-11T04:50:08.594Z,4.40
2023-12-11T04:52:43.320Z,3.50
2023-12-11T04:55:18.379Z,3.10
2023-12-11T04:57:53.145Z,2.50
2023-12-11T05:00:28.516Z,3.10
2023-12-11T05:03:03.806Z,3.00
2023-12-11T05:05:39.024Z,1.30
2023-12-11T05:08:14.268Z,2.10
2023-12-11T05:10:49.906Z,1.30
2023-12-11T05:13:25.245Z,1.40
2023-12-11T05:16:00.122Z,1.30
2023-12-11T05:18:38.448Z,1.50
2023-12-11T05:21:15.024Z,1.40
2023-12-11T05:23:51.403Z,1.20
2023-12-11T05:26:26.501Z,1.30
2023-12-11T05:29:01.862Z,1.20
2023-12-11T05:31:36.678Z,0.90
2023-12-11T05:34:11.921Z,1.20
2023-12-11T05:36:47.263Z,1.20
2023-12-11T05:39:22.045Z,1.00
2023-12-11T05:41:56.985Z,1.20
2023-12-11T05:44:31.828Z,1.10
2023-12-11T05:47:06.829Z,0.90
2023-12-11T05:49:41.700Z,1.10
2023-12-11T05:52:16.961Z,1.00
2023-12-11T05:54:55.197Z,0.70
2023-12-11T05:57:30.060Z,0.80
2023-12-11T06:00:06.070Z,0.70
2023-12-11T06:02:41.767Z,0.60
2023-12-11T06:05:17.213Z,0.90
2023-12-11T06:07:52.791Z,0.90
2023-12-11T06:10:27.825Z,0.80
2023-12-11T06:13:02.675Z,1.00
2023-12-11T06:15:37.431Z,0.50
2023-12-11T06:18:13.516Z,0.90
2023-12-11T06:20:49.126Z,0.90
2023-12-11T06:23:26.069Z,1.20
2023-12-11T06:26:00.915Z,1.00
2023-12-11T06:28:36.046Z,1.30
2023-12-11T06:31:11.525Z,1.30
2023-12-11T06:33:46.395Z,0.90
2023-12-11T06:36:21.612Z,1.10
2023-12-11T06:38:57.068Z,1.30
2023-12-11T06:41:31.796Z,0.80
2023-12-11T06:44:07.227Z,1.00
2023-12-11T06:46:42.681Z,1.30
2023-12-11T06:49:17.823Z,1.10
2023-12-11T06:51:54.302Z,1.30
2023-12-11T06:54:29.817Z,1.50
2023-12-11T06:57:05.458Z,1.10
2023-12-11T06:59:40.594Z,1.40
2023-12-11T07:02:15.540Z,1.60
2023-12-11T07:04:52.858Z,1.60
2023-12-11T07:07:28.144Z,1.40
2023-12-11T07:10:05.981Z,1.40
2023-12-11T07:12:47.246Z,1.60
2023-12-11T07:15:22.485Z,1.50
2023-12-11T07:17:57.801Z,1.60
2023-12-11T07:20:34.695Z,1.40
2023-12-11T07:23:11.330Z,1.50
2023-12-11T07:25:46.895Z,1.60
2023-12-11T07:28:21.793Z,1.50
2023-12-11T07:30:56.942Z,1.50
2023-12-11T07:33:31.848Z,1.60
2023-12-11T07:36:08.406Z,1.70
2023-12-11T07:38:43.950Z,1.90
2023-12-11T07:41:24.665Z,2.00
2023-12-11T07:44:00.243Z,1.70
2023-12-11T07:46:35.619Z,2.10
2023-12-11T07:49:14.165Z,1.80
2023-12-11T07:51:49.844Z,2.10
2023-12-11T07:54:25.145Z,1.80
2023-12-11T07:57:00.636Z,1.50
2023-12-11T07:59:35.409Z,1.20
2023-12-11T08:02:10.538Z,1.30
2023-12-11T08:04:46.488Z,1.80
2023-12-11T08:07:22.017Z,1.50
2023-12-11T08:09:57.317Z,1.80
2023-12-11T08:12:34.810Z,1.10
2023-12-11T08:15:12.561Z,1.60
2023-12-11T08:17:47.827Z,1.40
2023-12-11T08:20:23.479Z,1.50
2023-12-11T08:22:58.957Z,1.50
2023-12-11T08:25:34.613Z,1.70
2023-12-11T08:28:10.492Z,1.40
2023-12-11T08:30:45.717Z,1.50
2023-12-11T08:33:21.334Z,1.70
2023-12-11T08:35:56.295Z,1.60
2023-12-11T08:38:32.585Z,1.80
2023-12-11T08:41:08.149Z,1.80
2023-12-11T08:43:43.336Z,1.30
2023-12-11T08:46:18.477Z,1.50
2023-12-11T08:48:53.562Z,1.50
2023-12-11T08:51:28.520Z,2.00
2023-12-11T08:54:03.944Z,1.20
2023-12-11T08:56:38.704Z,1.30
2023-12-11T08:59:15.149Z,2.00
2023-12-11T09:01:51.094Z,1.30
2023-12-11T09:04:27.009Z,1.90
2023-12-11T09:07:02.412Z,1.90
2023-12-11T09:09:37.342Z,2.00
2023-12-11T09:12:23.372Z,20.90
2023-12-11T09:15:07.466Z,1.80
2023-12-11T09:17:44.403Z,2.00
2023-12-11T09:20:19.713Z,1.50
2023-12-11T09:22:55.221Z,1.70
2023-12-11T09:25:31.608Z,1.40
2023-12-11T09:28:07.480Z,2.10
2023-12-11T09:30:42.998Z,2.00
2023-12-11T09:33:18.717Z,1.60
2023-12-11T09:35:54.589Z,1.30
2023-12-11T09:38:30.171Z,1.50
2023-12-11T09:41:07.420Z,1.70
2023-12-11T09:43:42.955Z,1.60
2023-12-11T09:46:20.853Z,1.40
2023-12-11T09:48:58.053Z,1.20
2023-12-11T09:51:34.185Z,1.10
2023-12-11T09:54:14.378Z,1.40
2023-12-11T09:56:51.434Z,1.20
2023-12-11T09:59:29.156Z,1.30
2023-12-11T10:02:07.167Z,1.30
2023-12-11T10:04:59.587Z,1.10
2023-12-11T10:07:35.185Z,1.50
2023-12-11T10:10:28.960Z,1.30
2023-12-11T10:13:05.132Z,1.40
2023-12-11T10:15:42.447Z,1.40
2023-12-11T10:18:19.773Z,1.70
2023-12-11T10:21:00.142Z,1.30
2023-12-11T10:23:36.634Z,1.40
2023-12-11T10:26:15.596Z,1.40
2023-12-11T10:28:51.812Z,1.60
2023-12-11T10:31:40.763Z,1.20
2023-12-11T10:34:16.975Z,1.60
2023-12-11T10:36:56.708Z,1.40
2023-12-11T10:39:32.794Z,1.60
2023-12-11T10:42:19.111Z,1.40
2023-12-11T10:45:04.352Z,1.40
2023-12-11T10:47:42.838Z,1.20
2023-12-11T10:50:19.563Z,1.50
2023-12-11T10:52:57.678Z,1.70
2023-12-11T10:55:34.859Z,1.50
2023-12-11T10:58:13.893Z,1.20
2023-12-11T11:00:52.227Z,1.70
2023-12-11T11:03:28.886Z,1.80
2023-12-11T11:06:09.905Z,1.80
2023-12-11T11:08:56.937Z,2.10
2023-12-11T11:11:39.377Z,2.20
2023-12-11T11:14:46.396Z,2.00
2023-12-11T11:17:22.076Z,1.50
2023-12-11T11:20:20.660Z,1.30
2023-12-11T11:23:33.751Z,1.30
2023-12-11T11:26:39.573Z,1.60
2023-12-11T11:29:46.363Z,1.70
2023-12-11T11:32:21.366Z,1.60
2023-12-11T11:34:58.177Z,1.30
2023-12-11T11:37:55.496Z,1.50
2023-12-11T11:40:40.382Z,1.30
2023-12-11T11:43:16.737Z,1.10
2023-12-11T11:45:59.601Z,1.30
2023-12-11T11:48:47.553Z,1.30
2023-12-11T11:51:23.368Z,1.50
2023-12-11T11:54:03.866Z,1.40
2023-12-11T11:56:48.884Z,1.70
2023-12-11T11:59:23.666Z,1.50
2023-12-11T12:02:01.259Z,1.70
2023-12-11T12:04:38.260Z,1.30
2023-12-11T12:07:13.055Z,1.30
2023-12-11T12:09:53.446Z,1.60
2023-12-11T12:12:28.943Z,1.40
2023-12-11T12:15:09.130Z,1.50
2023-12-11T12:17:44.404Z,1.40
2023-12-11T12:20:21.383Z,1.30
2023-12-11T12:23:11.418Z,1.60
2023-12-11T12:25:47.057Z,1.70
2023-12-11T12:28:23.418Z,1.40
2023-12-11T12:30:59.053Z,1.70
2023-12-11T12:33:34.829Z,1.70
2023-12-11T12:36:13.121Z,1.40
2023-12-11T12:38:48.908Z,1.60
2023-12-11T12:41:25.576Z,1.50
2023-12-11T12:44:06.019Z,2.00
2023-12-11T12:46:49.107Z,1.70
2023-12-11T12:49:25.110Z,1.60
2023-12-11T12:52:00.391Z,1.30
2023-12-11T12:54:53.095Z,1.60
2023-12-11T12:57:29.837Z,1.50
2023-12-11T13:00:07.065Z,1.60
2023-12-11T13:02:42.134Z,1.50
2023-12-11T13:05:17.707Z,1.40
2023-12-11T13:08:07.619Z,1.40
2023-12-11T13:10:54.008Z,1.50
2023-12-11T13:13:31.121Z,1.70
2023-12-11T13:16:07.839Z,1.40
2023-12-11T13:18:42.735Z,1.40
2023-12-11T13:21:18.638Z,1.60
2023-12-11T13:23:58.235Z,1.60
2023-12-11T13:26:34.280Z,1.50
2023-12-11T13:29:09.400Z,1.50
2023-12-11T13:31:44.088Z,1.40
2023-12-11T13:34:20.007Z,1.60
2023-12-11T13:36:54.891Z,1.80
2023-12-11T13:39:33.400Z,1.50
2023-12-11T13:42:08.873Z,1.10
2023-12-11T13:44:48.062Z,1.60
2023-12-11T13:47:23.315Z,1.70
2023-12-11T13:49:58.177Z,2.00
2023-12-11T13:52:35.633Z,1.60
2023-12-11T13:55:11.368Z,2.00
2023-12-11T13:57:46.216Z,1.90
2023-12-11T14:00:22.145Z,2.10
2023-12-11T14:03:02.592Z,2.20
2023-12-11T14:05:39.610Z,2.40
2023-12-11T14:08:14.795Z,2.20
2023-12-11T14:10:51.538Z,2.90
2023-12-11T14:13:26.870Z,7.60
2023-12-11T14:16:01.459Z,2.40
2023-12-11T14:18:36.953Z,1.80
2023-12-11T14:21:13.493Z,2.30
2023-12-11T14:23:48.255Z,2.10
2023-12-11T14:26:22.969Z,2.10
2023-12-11T14:28:57.857Z,2.40
2023-12-11T14:31:33.105Z,2.20
2023-12-11T14:34:08.420Z,2.30
2023-12-11T14:36:44.106Z,2.70
2023-12-11T14:39:19.090Z,3.10
2023-12-11T14:41:54.151Z,3.30
2023-12-11T14:44:29.272Z,4.40
2023-12-11T14:47:04.403Z,3.50
2023-12-11T14:49:39.273Z,2.80
2023-12-11T14:52:13.973Z,3.30
2023-12-11T14:54:49.092Z,3.20
2023-12-11T14:57:24.191Z,3.30
2023-12-11T14:59:59.260Z,2.70
2023-12-11T15:02:34.623Z,2.80
2023-12-11T15:05:11.151Z,2.80
2023-12-11T15:07:46.327Z,3.00
2023-12-11T15:10:22.306Z,2.30
2023-12-11T15:12:58.125Z,3.00
2023-12-11T15:15:33.681Z,2.40
2023-12-11T15:18:09.757Z,2.90
2023-12-11T15:20:45.189Z,2.50
2023-12-11T15:23:21.291Z,3.00
2023-12-11T15:25:56.108Z,2.80
2023-12-11T15:28:30.811Z,2.90
2023-12-11T15:31:13.293Z,2.60
2023-12-11T15:33:49.020Z,3.00
2023-12-11T15:36:23.967Z,3.10
2023-12-11T15:38:58.963Z,3.20
2023-12-11T15:41:34.177Z,3.40
2023-12-11T15:44:09.464Z,3.80
2023-12-11T15:46:47.215Z,3.50
2023-12-11T15:49:23.360Z,2.70
2023-12-11T15:52:01.335Z,3.10
2023-12-11T15:54:37.250Z,3.10
2023-12-11T15:57:13.454Z,3.60
2023-12-11T15:59:49.923Z,2.70
2023-12-11T16:02:25.095Z,2.60
2023-12-11T16:05:00.234Z,2.40
2023-12-11T16:07:35.785Z,2.80
2023-12-11T16:10:12.519Z,2.70
2023-12-11T16:12:47.109Z,2.70
2023-12-11T16:15:22.852Z,3.00
2023-12-11T16:17:59.049Z,3.10
2023-12-11T16:20:34.049Z,2.90
2023-12-11T16:23:09.901Z,2.90
2023-12-11T16:25:51.640Z,2.50
2023-12-11T16:28:35.518Z,2.00
2023-12-11T16:31:10.638Z,1.80
2023-12-11T16:33:48.319Z,2.20
2023-12-11T16:36:23.038Z,1.90
2023-12-11T16:38:57.925Z,1.90
2023-12-11T16:41:33.145Z,1.90
2023-12-11T16:44:08.316Z,2.10
2023-12-11T16:46:46.961Z,2.00
2023-12-11T16:49:22.365Z,2.20
2023-12-11T16:51:56.906Z,1.80
2023-12-11T16:54:32.054Z,4.60
2023-12-11T16:57:08.017Z,2.80
2023-12-11T16:59:42.630Z,3.00
2023-12-11T17:02:17.492Z,2.70
2023-12-11T17:04:53.038Z,2.80
2023-12-11T17:07:27.838Z,10.80
2023-12-11T17:10:04.238Z,3.10
2023-12-11T17:12:39.221Z,3.00
2023-12-11T17:15:15.926Z,2.60
2023-12-11T17:17:51.327Z,3.00
2023-12-11T17:20:26.303Z,3.40
2023-12-11T17:23:01.590Z,3.30
2023-12-11T17:25:37.057Z,3.10
2023-12-11T17:28:12.233Z,3.80
2023-12-11T17:30:53.366Z,3.10
2023-12-11T17:33:28.395Z,2.80
2023-12-11T17:36:05.082Z,3.10
2023-12-11T17:38:39.642Z,2.60
2023-12-11T17:41:14.482Z,2.90
2023-12-11T17:43:49.203Z,2.90
2023-12-11T17:46:25.404Z,3.80
2023-12-11T17:49:00.413Z,3.20
2023-12-11T17:51:35.219Z,3.30
2023-12-11T17:54:09.765Z,3.70
2023-12-11T17:56:44.515Z,3.70
2023-12-11T17:59:19.547Z,3.70
2023-12-11T18:01:54.752Z,3.70
2023-12-11T18:04:29.315Z,4.00
2023-12-11T18:07:06.214Z,4.40
2023-12-11T18:09:42.251Z,5.40
2023-12-11T18:12:17.227Z,5.20
2023-12-11T18:14:52.932Z,5.50
2023-12-11T18:17:27.932Z,6.10
2023-12-11T18:20:03.349Z,6.20
2023-12-11T18:22:38.298Z,7.50
2023-12-11T18:25:14.022Z,7.80
2023-12-11T18:27:49.855Z,7.50
2023-12-11T18:30:25.078Z,11.80
2023-12-11T18:33:01.250Z,11.20
2023-12-11T18:35:35.945Z,6.80
2023-12-11T18:38:11.225Z,8.80
2023-12-11T18:40:45.909Z,8.80
2023-12-11T18:43:22.319Z,9.10
2023-12-11T18:45:57.879Z,9.50
2023-12-11T18:48:32.835Z,9.80
2023-12-11T18:51:08.424Z,11.10
2023-12-11T18:53:44.803Z,11.70
2023-12-11T18:56:25.905Z,8.90
2023-12-11T18:59:00.722Z,9.80
2023-12-11T19:01:35.699Z,8.50
2023-12-11T19:04:10.953Z,8.20
2023-12-11T19:06:45.747Z,6.90
2023-12-11T19:09:20.686Z,5.70
2023-12-11T19:11:55.785Z,5.40
2023-12-11T19:14:30.490Z,5.50
2023-12-11T19:17:05.221Z,5.40
2023-12-11T19:19:40.034Z,8.70
2023-12-11T19:22:15.572Z,5.10
2023-12-11T19:24:50.573Z,5.20
2023-12-11T19:27:27.619Z,4.50
2023-12-11T19:30:02.604Z,4.50
2023-12-11T19:32:38.984Z,3.80
2023-12-11T19:35:14.372Z,3.20
2023-12-11T19:37:49.639Z,3.30
2023-12-11T19:40:24.492Z,3.40
2023-12-11T19:42:59.614Z,3.90
2023-12-11T19:45:34.594Z,3.40
2023-12-11T19:48:11.641Z,3.60
2023-12-11T19:50:47.343Z,3.10
2023-12-11T19:53:24.462Z,3.60
2023-12-11T19:55:59.508Z,4.00
2023-12-11T19:58:35.003Z,3.50
2023-12-11T20:01:10.509Z,3.20
2023-12-11T20:03:47.547Z,2.90
2023-12-11T20:06:30.421Z,4.40
2023-12-11T20:09:05.281Z,5.70
2023-12-11T20:11:40.235Z,5.50
2023-12-11T20:14:15.284Z,3.70
2023-12-11T20:16:49.956Z,3.50
2023-12-11T20:19:26.472Z,2.80
2023-12-11T20:22:02.325Z,2.30
2023-12-11T20:24:37.584Z,2.10
2023-12-11T20:27:12.682Z,2.10
2023-12-11T20:29:47.759Z,1.30
2023-12-11T20:32:22.650Z,1.60
2023-12-11T20:34:57.519Z,2.30
2023-12-11T20:37:34.325Z,2.10
2023-12-11T20:40:12.359Z,1.20
2023-12-11T20:42:47.905Z,1.30
2023-12-11T20:45:24.104Z,1.20
2023-12-11T20:47:59.018Z,1.10
2023-12-11T20:50:34.195Z,1.50
2023-12-11T20:53:09.480Z,2.40
2023-12-11T20:55:46.751Z,0.80
2023-12-11T20:58:21.867Z,2.20
2023-12-11T21:00:57.250Z,2.40
2023-12-11T21:03:32.394Z,2.60
2023-12-11T21:06:08.315Z,2.90
2023-12-11T21:08:45.139Z,3.20
2023-12-11T21:11:20.557Z,3.30
2023-12-11T21:13:55.816Z,2.60
2023-12-11T21:16:31.123Z,2.90
2023-12-11T21:19:06.005Z,2.90
2023-12-11T21:21:41.288Z,3.10
2023-12-11T21:24:16.077Z,3.00
2023-12-11T21:26:53.606Z,3.20
2023-12-11T21:29:28.597Z,3.20
2023-12-11T21:32:05.624Z,3.10
2023-12-11T21:34:43.407Z,2.90
2023-12-11T21:37:18.602Z,2.50
2023-12-11T21:39:53.941Z,2.30
2023-12-11T21:42:28.758Z,2.80
2023-12-11T21:45:04.136Z,3.10
2023-12-11T21:47:39.147Z,3.30
2023-12-11T21:50:15.656Z,3.00
2023-12-11T21:52:52.159Z,3.60
2023-12-11T21:55:27.580Z,3.00
2023-12-11T21:58:02.582Z,2.90
2023-12-11T22:00:38.018Z,3.40
2023-12-11T22:03:13.090Z,2.30
2023-12-11T22:05:48.300Z,2.40
2023-12-11T22:08:23.381Z,3.00
2023-12-11T22:10:58.140Z,4.00
2023-12-11T22:13:33.792Z,4.00
2023-12-11T22:16:10.759Z,3.20
2023-12-11T22:18:48.793Z,4.00
2023-12-11T22:21:31.087Z,4.30
2023-12-11T22:24:06.367Z,4.40
2023-12-11T22:26:45.398Z,4.20
2023-12-11T22:29:20.174Z,4.10
2023-12-11T22:31:55.140Z,4.50
2023-12-11T22:34:31.198Z,4.80
2023-12-11T22:37:06.344Z,5.50
2023-12-11T22:39:46.484Z,3.70
2023-12-11T22:42:21.511Z,4.70
2023-12-11T22:44:56.494Z,4.10
2023-12-11T22:47:31.578Z,4.60
2023-12-11T22:50:07.211Z,4.40
2023-12-11T22:52:42.122Z,4.30
2023-12-11T22:55:18.056Z,4.60
2023-12-11T22:58:05.763Z,3.80
2023-12-11T23:00:48.011Z,4.60
2023-12-11T23:03:24.149Z,3.80
2023-12-11T23:05:59.345Z,4.60
2023-12-11T23:08:34.206Z,4.50
2023-12-11T23:11:11.237Z,4.20
2023-12-11T23:13:45.660Z,4.70
2023-12-11T23:16:20.274Z,4.90
2023-12-11T23:19:00.404Z,3.90
2023-12-11T23:21:38.315Z,3.90
2023-12-11T23:24:13.283Z,3.70
2023-12-11T23:26:48.158Z,4.30
2023-12-11T23:29:22.903Z,4.10
2023-12-11T23:31:57.576Z,4.60
2023-12-11T23:34:32.362Z,4.80
2023-12-11T23:37:07.604Z,4.00
2023-12-11T23:39:42.525Z,5.50
2023-12-11T23:42:17.897Z,5.40
2023-12-11T23:44:53.235Z,5.50
2023-12-11T23:47:27.824Z,5.90
2023-12-11T23:50:03.620Z,4.90
2023-12-11T23:52:38.766Z,5.10
2023-12-11T23:55:14.182Z,5.60
2023-12-11T23:57:50.425Z,6.10
